Time;durP1;ratioP1;P1;durP2;ratioP2;P2;SDS_P1;SDS_P2;PMS_P1;PMS_P2;Temp;Humidity;BMP_temperature;BMP_pressure;BME280_temperature;BME280_humidity;BME280_pressure;Samples;Min_cycle;Max_cycle;Signal;HPM_P1;HPM_P2
2022/09/02 00:03:45;;;;;;;5.63;5.13;;;16.00;14.50;;;;;;2616697;54;20165;-75
2022/09/02 00:09:32;;;;;;;5.60;5.10;;;15.80;16.20;;;;;;2616784;39;20703;-77
2022/09/02 00:15:20;;;;;;;5.70;5.30;;;15.80;16.40;;;;;;2616733;54;20224;-76
2022/09/02 00:21:10;;;;;;;5.53;4.93;;;15.60;18.10;;;;;;2616799;54;20264;-76
2022/09/02 00:26:58;;;;;;;6.63;5.00;;;15.50;19.00;;;;;;2615673;54;20392;-77
2022/09/02 00:32:46;;;;;;;5.97;5.30;;;15.40;20.50;;;;;;2616543;54;20392;-76
2022/09/02 00:38:34;;;;;;;6.03;5.43;;;15.20;21.40;;;;;;2615899;54;20258;-77
2022/09/02 00:48:22;;;;;;;5.00;4.70;;;15.10;23.20;;;;;;2615729;54;20526;-76
2022/09/02 00:54:11;;;;;;;5.70;5.30;;;15.00;25.90;;;;;;2616616;54;20384;-77
2022/09/02 01:00:02;;;;;;;5.30;5.00;;;14.80;27.10;;;;;;2616423;46;20400;-77
2022/09/02 01:05:52;;;;;;;5.83;4.67;;;14.60;29.20;;;;;;2616343;54;20439;-78
2022/09/02 01:11:46;;;;;;;5.47;4.97;;;14.50;30.60;;;;;;2616558;54;20384;-78
2022/09/02 01:17:36;;;;;;;5.23;4.87;;;14.30;33.40;;;;;;2615127;54;20460;-77
2022/09/02 01:23:26;;;;;;;5.50;5.10;;;14.40;36.00;;;;;;2615199;54;20360;-77
2022/09/02 01:29:15;;;;;;;7.70;5.10;;;14.30;36.70;;;;;;2616669;54;20988;-77
2022/09/02 01:35:04;;;;;;;5.43;5.03;;;14.10;39.40;;;;;;2617165;54;20380;-77
2022/09/02 01:40:52;;;;;;;6.90;5.20;;;14.00;45.00;;;;;;2616401;54;20408;-78
2022/09/02 01:43:52;;;;;;;5.50;5.00;;;13.90;43.10;;;;;;2615487;54;20388;-77
2022/09/02 01:46:17;;;;;;;5.63;5.10;;;13.90;43.40;;;;;;2615263;54;20400;-77
2022/09/02 01:52:07;;;;;;;5.70;5.20;;;13.90;43.70;;;;;;2616561;54;20125;-78
2022/09/02 01:57:56;;;;;;;5.27;4.80;;;14.00;43.00;;;;;;2616885;54;20435;-77
2022/09/02 02:03:45;;;;;;;10.60;6.83;;;13.90;42.70;;;;;;2616190;54;20969;-78
2022/09/02 02:09:33;;;;;;;5.77;5.00;;;13.80;43.20;;;;;;2615616;54;20388;-78
2022/09/02 02:15:21;;;;;;;5.67;5.27;;;13.80;45.50;;;;;;2616125;54;20394;-78
2022/09/02 02:21:09;;;;;;;8.80;5.20;;;13.70;48.50;;;;;;2615697;54;20372;-78
2022/09/02 02:26:59;;;;;;;5.83;5.43;;;13.60;50.60;;;;;;2615939;54;20508;-77
2022/09/02 02:32:47;;;;;;;5.43;4.93;;;13.60;50.60;;;;;;2614934;54;20378;-78
2022/09/02 02:38:37;;;;;;;6.07;5.57;;;13.50;52.40;;;;;;2615597;54;20418;-78
2022/09/02 02:48:24;;;;;;;5.37;4.97;;;13.20;59.40;;;;;;2615987;54;20535;-77
2022/09/02 02:54:13;;;;;;;6.20;5.70;;;13.50;59.60;;;;;;2616092;54;20415;-75
2022/09/02 03:00:09;;;;;;;5.33;4.83;;;13.50;58.00;;;;;;2616215;54;20487;-76
2022/09/02 03:05:57;;;;;;;5.43;4.70;;;13.50;59.60;;;;;;2616247;54;20408;-75
2022/09/02 03:11:45;;;;;;;5.90;4.70;;;13.40;57.50;;;;;;2615336;54;20146;-75
2022/09/02 03:17:33;;;;;;;5.80;4.80;;;13.50;56.20;;;;;;2615466;54;20370;-75
2022/09/02 03:23:21;;;;;;;5.23;4.83;;;13.60;55.40;;;;;;2616517;54;20415;-76
2022/09/02 03:29:09;;;;;;;5.93;5.20;;;13.50;55.50;;;;;;2617321;46;20257;-75
2022/09/02 03:34:57;;;;;;;5.20;4.70;;;13.50;56.70;;;;;;2617147;54;20146;-74
2022/09/02 03:40:44;;;;;;;6.37;5.53;;;13.50;56.40;;;;;;2616844;39;20563;-74
2022/09/02 03:43:49;;;;;;;5.47;5.07;;;13.50;57.30;;;;;;2615579;54;20419;-74
2022/09/02 03:46:16;;;;;;;5.20;4.70;;;13.40;56.50;;;;;;2616213;49;20708;-75
2022/09/02 03:52:04;;;;;;;5.33;4.93;;;13.50;55.90;;;;;;2616039;54;20512;-76
2022/09/02 03:57:52;;;;;;;6.17;5.33;;;13.60;55.70;;;;;;2616122;54;20151;-74
2022/09/02 04:03:39;;;;;;;6.03;5.43;;;13.60;55.70;;;;;;2615559;54;20135;-75
2022/09/02 04:09:27;;;;;;;6.50;4.60;;;13.60;55.30;;;;;;2616399;54;20123;-75
2022/09/02 04:15:15;;;;;;;5.90;5.40;;;13.60;54.60;;;;;;2616520;39;20536;-74
2022/09/02 04:21:03;;;;;;;8.20;5.63;;;13.50;54.30;;;;;;2616383;54;20122;-75
2022/09/02 04:26:50;;;;;;;6.47;5.50;;;13.60;53.50;;;;;;2615596;54;20159;-74
2022/09/02 04:32:38;;;;;;;5.93;4.53;;;13.50;55.10;;;;;;2616376;54;20127;-72
2022/09/02 04:38:27;;;;;;;6.13;5.53;;;13.60;55.20;;;;;;2616136;54;20114;-74
2022/09/02 04:48:27;;;;;;;5.43;4.93;;;13.60;54.30;;;;;;2616069;54;20407;-75
2022/09/02 04:54:15;;;;;;;27.10;5.97;;;13.70;53.30;;;;;;2614825;54;20399;-75
2022/09/02 05:00:08;;;;;;;8.27;5.03;;;13.70;53.40;;;;;;2616501;54;20400;-75
2022/09/02 05:06:04;;;;;;;15.40;8.00;;;13.80;53.20;;;;;;2616528;54;20469;-75
2022/09/02 05:11:56;;;;;;;6.90;5.83;;;13.80;53.20;;;;;;2618317;39;20725;-75
2022/09/02 05:17:45;;;;;;;6.23;5.50;;;13.80;52.90;;;;;;2617843;54;20351;-75
2022/09/02 05:23:33;;;;;;;7.13;6.30;;;13.80;53.10;;;;;;2618543;39;20745;-77
2022/09/02 05:29:22;;;;;;;11.50;6.90;;;13.90;51.30;;;;;;2617098;54;20391;-75
2022/09/02 05:35:13;;;;;;;12.03;7.00;;;14.10;49.90;;;;;;2617279;54;20394;-74
2022/09/02 05:41:06;;;;;;;7.77;6.20;;;14.20;47.60;;;;;;2615462;54;20420;-76
2022/09/02 05:43:52;;;;;;;8.93;6.00;;;14.30;46.40;;;;;;2616475;54;20439;-76
2022/09/02 05:46:21;;;;;;;6.07;5.60;;;14.40;45.40;;;;;;2616990;47;20507;-77
2022/09/02 05:52:10;;;;;;;10.00;6.50;;;14.60;42.40;;;;;;2617841;54;20426;-75
2022/09/02 05:57:58;;;;;;;7.00;6.30;;;14.80;40.30;;;;;;2618449;54;20932;-77
2022/09/02 06:03:46;;;;;;;7.13;6.40;;;15.00;39.40;;;;;;2617939;54;20140;-77
2022/09/02 06:09:34;;;;;;;7.30;6.60;;;15.20;39.10;;;;;;2615286;54;20558;-76
2022/09/02 06:15:22;;;;;;;7.67;6.60;;;15.50;35.30;;;;;;2614429;54;20168;-74
2022/09/02 06:21:10;;;;;;;10.20;6.20;;;15.60;33.20;;;;;;2618685;54;20379;-76
2022/09/02 06:26:59;;;;;;;6.53;5.93;;;15.60;33.30;;;;;;2618409;54;20121;-77
2022/09/02 06:32:48;;;;;;;7.47;6.70;;;15.60;31.10;;;;;;2617694;54;20386;-76
2022/09/02 06:38:42;;;;;;;9.83;6.50;;;15.60;30.60;;;;;;2615356;54;20400;-77
2022/09/02 06:48:26;;;;;;;5.27;4.97;;;15.80;30.00;;;;;;2616327;54;20942;-75
2022/09/02 06:54:17;;;;;;;11.53;5.40;;;16.10;27.50;;;;;;2616079;54;20384;-75
2022/09/02 07:00:08;;;;;;;6.57;5.80;;;16.20;27.30;;;;;;2614713;54;20382;-77
2022/09/02 07:06:10;;;;;;;9.67;5.30;;;16.40;26.40;;;;;;2617510;54;20381;-75
2022/09/02 07:12:00;;;;;;;11.13;6.20;;;16.50;26.00;;;;;;2618557;54;20539;-75
2022/09/02 07:17:49;;;;;;;6.63;5.90;;;16.80;24.70;;;;;;2618355;54;20365;-75
2022/09/02 07:23:36;;;;;;;7.30;6.60;;;17.50;21.60;;;;;;2618370;54;20974;-73
2022/09/02 07:29:24;;;;;;;9.27;5.83;;;18.40;16.90;;;;;;2614828;31;20606;-74
2022/09/02 07:35:12;;;;;;;7.90;6.30;;;18.50;17.20;;;;;;2615773;54;20347;-75
2022/09/02 07:41:03;;;;;;;8.70;5.80;;;18.30;18.80;;;;;;2616560;54;20250;-77
2022/09/02 07:43:54;;;;;;;6.77;6.07;;;18.60;18.90;;;;;;2615507;54;20418;-78
2022/09/02 07:46:21;;;;;;;10.57;6.67;;;18.50;18.00;;;;;;2611579;47;20439;-73
2022/09/02 07:52:08;;;;;;;6.30;5.70;;;18.70;18.10;;;;;;2616331;54;20387;-75
2022/09/02 07:57:56;;;;;;;6.70;5.70;;;19.10;16.70;;;;;;2615061;54;20148;-73
2022/09/02 08:03:44;;;;;;;9.20;6.40;;;20.20;14.20;;;;;;2615609;54;20643;-73
2022/09/02 08:09:32;;;;;;;7.83;5.70;;;20.20;14.00;;;;;;2615961;54;20387;-74
2022/09/02 08:15:20;;;;;;;8.33;6.37;;;20.20;13.00;;;;;;2613819;54;20221;-74
2022/09/02 08:21:08;;;;;;;6.63;6.13;;;20.50;13.00;;;;;;2618495;54;20653;-73
2022/09/02 08:26:56;;;;;;;6.70;6.00;;;20.40;13.70;;;;;;2617883;54;20928;-73
2022/09/02 08:32:44;;;;;;;12.03;6.07;;;20.70;12.00;;;;;;2617850;54;20114;-74
2022/09/02 08:38:31;;;;;;;15.33;6.77;;;20.90;11.90;;;;;;2617873;54;20114;-75
2022/09/02 08:48:26;;;;;;;15.23;6.30;;;21.60;10.60;;;;;;2617876;54;20363;-74
2022/09/02 09:07:52;;;;;;;6.50;5.97;;;23.70;6.10;;;;;;2615506;39;20436;-74
2022/09/02 09:20:34;;;;;;;9.60;7.63;;;25.50;1.60;;;;;;2617485;54;20401;-75
2022/09/02 09:26:27;;;;;;;9.10;5.90;;;26.70;1.00;;;;;;2616284;54;20462;-76
2022/09/02 09:32:32;;;;;;;10.53;6.33;;;26.70;1.00;;;;;;2614656;54;20953;-74
2022/09/02 09:38:33;;;;;;;7.13;6.40;;;26.50;1.00;;;;;;2616814;54;20489;-74
2022/09/02 09:48:32;;;;;;;6.13;5.50;;;27.20;1.00;;;;;;2614751;54;21005;-73
2022/09/02 09:54:19;;;;;;;6.93;6.00;;;28.30;1.00;;;;;;2615810;54;21031;-75
2022/09/02 10:11:04;;;;;;;7.00;6.40;;;26.90;1.00;;;;;;2615157;54;20397;-73
2022/09/02 10:17:07;;;;;;;6.80;6.30;;;27.90;1.00;;;;;;2615283;54;20882;-74
2022/09/02 10:39:18;;;;;;;6.00;5.60;;;26.50;1.00;;;;;;2616476;54;20954;-74
2022/09/02 10:41:45;;;;;;;7.53;5.83;;;27.40;1.00;;;;;;2616939;54;20395;-73
2022/09/02 10:44:48;;;;;;;6.77;6.33;;;26.60;1.00;;;;;;2613427;54;20526;-74
2022/09/02 10:53:54;;;;;;;6.10;5.60;;;25.60;1.00;;;;;;2615185;47;20810;-75
2022/09/02 11:00:03;;;;;;;6.87;5.77;;;25.60;1.00;;;;;;2615872;54;20918;-74
2022/09/02 11:05:52;;;;;;;6.07;5.67;;;25.30;1.00;;;;;;2613539;54;20389;-73
2022/09/02 11:11:41;;;;;;;6.13;5.53;;;25.70;1.00;;;;;;2613774;54;20391;-75
2022/09/02 11:24:03;;;;;;;7.03;5.97;;;25.40;1.00;;;;;;2615499;54;20404;-75
2022/09/02 11:36:17;;;;;;;6.13;5.70;;;25.80;1.00;;;;;;2615029;39;20832;-75
2022/09/02 11:42:14;;;;;;;5.87;5.37;;;25.80;1.00;;;;;;2614705;54;20404;-76
2022/09/02 11:58:07;;;;;;;5.90;5.50;;;27.20;1.00;;;;;;2615314;54;20438;-75
2022/09/02 12:16:32;;;;;;;5.70;5.40;;;27.20;1.00;;;;;;2614547;54;21472;-77
2022/09/02 12:22:26;;;;;;;5.90;5.40;;;28.30;1.00;;;;;;2616913;54;20416;-76
2022/09/02 12:28:29;;;;;;;5.30;5.00;;;28.00;1.00;;;;;;2614581;54;20415;-75
2022/09/02 12:34:27;;;;;;;5.97;5.47;;;27.40;1.00;;;;;;2616434;39;20773;-76
2022/09/02 12:40:19;;;;;;;5.60;5.17;;;26.40;1.00;;;;;;2617464;54;20405;-76
2022/09/02 12:46:16;;;;;;;5.80;5.30;;;25.50;1.00;;;;;;2616763;54;20384;-75
2022/09/02 12:52:08;;;;;;;5.43;5.13;;;26.30;1.00;;;;;;2615237;54;20483;-76
2022/09/02 12:58:13;;;;;;;5.73;5.43;;;27.50;1.00;;;;;;2616500;54;20435;-76
2022/09/02 13:30:24;;;;;;;5.03;4.73;;;29.50;1.00;;;;;;2617529;54;20395;-75
2022/09/02 13:46:40;;;;;;;5.90;5.47;;;27.50;1.00;;;;;;2613220;54;20539;-76
2022/09/02 13:49:06;;;;;;;7.93;5.17;;;27.20;1.00;;;;;;2613467;54;20523;-76
2022/09/02 13:54:57;;;;;;;5.97;5.47;;;27.50;1.00;;;;;;2615361;54;20240;-76
2022/09/02 14:00:44;;;;;;;5.10;4.87;;;28.80;1.00;;;;;;2614437;54;20436;-76
2022/09/02 14:06:40;;;;;;;5.37;5.07;;;27.90;1.00;;;;;;2615219;54;20143;-74
2022/09/02 14:12:28;;;;;;;5.43;5.13;;;26.10;1.00;;;;;;2616630;46;20400;-76
2022/09/02 14:18:19;;;;;;;5.60;4.83;;;26.20;1.00;;;;;;2617200;54;20410;-75
2022/09/02 14:24:11;;;;;;;5.37;5.07;;;26.90;1.00;;;;;;2616548;54;20414;-76
2022/09/02 14:29:59;;;;;;;5.57;5.13;;;27.30;1.00;;;;;;2615979;54;20381;-77
2022/09/02 14:42:18;;;;;;;5.57;5.27;;;30.60;1.00;;;;;;2618351;31;20829;-75
2022/09/02 15:02:27;;;;;;;18.33;16.40;;;31.00;1.00;;;;;;2616044;54;20403;-76
2022/09/02 15:08:17;;;;;;;6.80;5.37;;;28.30;1.00;;;;;;2616992;54;20402;-76
2022/09/02 15:14:05;;;;;;;5.90;5.50;;;30.00;1.00;;;;;;2613008;54;20528;-75
2022/09/02 15:19:53;;;;;;;6.23;5.83;;;29.70;1.00;;;;;;2616519;31;20947;-76
2022/09/02 15:25:42;;;;;;;6.13;5.73;;;28.90;1.00;;;;;;2614890;39;20231;-77
2022/09/02 15:31:30;;;;;;;5.30;5.00;;;30.00;1.00;;;;;;2617431;54;20401;-77
2022/09/02 15:37:18;;;;;;;9.60;5.60;;;30.40;1.00;;;;;;2616664;54;20128;-77
2022/09/02 15:43:07;;;;;;;5.80;5.40;;;28.80;1.00;;;;;;2616014;54;20444;-76
2022/09/02 15:52:17;;;;;;;6.30;5.90;;;29.70;1.00;;;;;;2616789;54;20389;-76
2022/09/02 15:58:05;;;;;;;6.50;6.10;;;28.30;1.00;;;;;;2614741;54;20131;-76
2022/09/02 16:03:54;;;;;;;6.10;5.70;;;29.20;1.00;;;;;;2614066;54;20404;-77
2022/09/02 16:09:42;;;;;;;5.70;5.27;;;27.60;1.00;;;;;;2618062;54;20413;-77
2022/09/02 16:15:33;;;;;;;5.43;5.13;;;27.90;1.00;;;;;;2616940;54;20116;-75
2022/09/02 16:21:21;;;;;;;6.40;5.90;;;26.70;1.00;;;;;;2615492;54;20421;-77
2022/09/02 16:27:09;;;;;;;6.40;6.00;;;26.60;1.00;;;;;;2615624;54;20483;-76
2022/09/02 16:32:57;;;;;;;7.27;6.87;;;25.60;1.00;;;;;;2617551;54;20706;-74
2022/09/02 16:38:45;;;;;;;6.77;6.27;;;25.50;1.00;;;;;;2617012;54;20163;-76
2022/09/02 16:44:34;;;;;;;7.20;6.70;;;26.00;1.00;;;;;;2617932;54;20496;-74
2022/09/02 16:47:47;;;;;;;6.90;6.40;;;25.90;1.00;;;;;;2618485;54;20408;-77
2022/09/02 16:50:13;;;;;;;7.27;6.77;;;26.10;1.00;;;;;;2617587;54;20388;-76
2022/09/02 16:56:01;;;;;;;7.60;7.10;;;25.20;1.00;;;;;;2615335;54;20644;-75
2022/09/02 17:01:48;;;;;;;8.70;6.53;;;24.60;1.00;;;;;;2615570;54;20135;-75
2022/09/02 17:07:36;;;;;;;6.53;6.23;;;24.60;1.00;;;;;;2618138;54;20139;-75
2022/09/02 17:13:24;;;;;;;7.33;6.73;;;23.80;1.00;;;;;;2618308;54;20620;-76
2022/09/02 17:19:19;;;;;;;7.50;7.00;;;23.50;1.00;;;;;;2617856;54;20343;-74
2022/09/02 17:25:08;;;;;;;5.80;5.47;;;23.30;1.00;;;;;;2617904;54;20384;-76
2022/09/02 17:30:57;;;;;;;6.37;6.07;;;23.10;1.00;;;;;;2619073;54;20528;-75
2022/09/02 17:36:46;;;;;;;6.07;5.60;;;22.90;1.00;;;;;;2616696;54;20388;-76
2022/09/02 17:42:34;;;;;;;6.47;6.03;;;22.70;1.00;;;;;;2616636;54;20363;-77
2022/09/02 17:52:22;;;;;;;7.00;6.30;;;22.40;1.00;;;;;;2616202;54;20418;-76
2022/09/02 17:58:16;;;;;;;6.93;5.40;;;22.20;1.00;;;;;;2616811;54;20395;-75
2022/09/02 18:08:38;;;;;;;7.43;6.80;;;21.70;1.00;;;;;;2616322;54;20487;-76
2022/09/02 18:14:39;;;;;;;7.17;6.57;;;21.30;1.00;;;;;;2616698;54;20376;-76
2022/09/02 18:20:41;;;;;;;9.90;7.40;;;21.00;1.00;;;;;;2617621;39;20810;-76
2022/09/02 18:39:39;;;;;;;8.23;7.60;;;19.80;1.00;;;;;;2616497;54;20407;-76
2022/09/02 18:45:48;;;;;;;8.23;7.53;;;19.80;2.00;;;;;;2616581;54;20367;-76
2022/09/02 18:55:18;;;;;;;7.93;7.23;;;19.40;2.10;;;;;;2618808;54;20405;-76
2022/09/02 19:13:54;;;;;;;8.10;7.10;;;19.70;1.00;;;;;;2618671;54;20946;-76
2022/09/02 19:19:42;;;;;;;8.10;7.50;;;19.90;1.00;;;;;;2618645;54;20379;-77
2022/09/02 19:25:32;;;;;;;6.90;6.50;;;19.70;1.00;;;;;;2618585;54;20633;-77
2022/09/02 19:31:23;;;;;;;6.93;6.43;;;19.70;1.00;;;;;;2618336;54;21430;-77
2022/09/02 19:37:13;;;;;;;11.90;7.10;;;19.40;1.00;;;;;;2618621;54;20426;-76
2022/09/02 19:43:04;;;;;;;9.87;7.77;;;19.00;2.00;;;;;;2618797;54;20408;-76
2022/09/02 19:48:52;;;;;;;7.50;6.87;;;18.80;2.90;;;;;;2618794;54;20363;-78
2022/09/02 19:54:40;;;;;;;7.60;6.90;;;18.80;2.60;;;;;;2619181;39;20732;-77
2022/09/02 20:00:30;;;;;;;7.40;6.80;;;18.80;2.90;;;;;;2616998;54;20454;-77
2022/09/02 20:06:18;;;;;;;6.73;6.23;;;19.20;1.40;;;;;;2617039;54;21008;-77
2022/09/02 20:12:06;;;;;;;7.90;6.97;;;19.40;1.00;;;;;;2617343;54;20151;-79
2022/09/02 20:24:42;;;;;;;6.73;6.13;;;19.50;1.00;;;;;;2615437;54;20397;-76
2022/09/02 20:30:33;;;;;;;11.13;6.57;;;19.50;1.00;;;;;;2616840;54;20509;-77
2022/09/02 20:43:28;;;;;;;7.27;6.67;;;19.20;1.00;;;;;;2617234;39;20771;-77
2022/09/02 20:50:04;;;;;;;9.30;6.67;;;19.20;1.00;;;;;;2615000;54;20541;-76
2022/09/02 21:02:09;;;;;;;8.20;7.37;;;19.20;1.50;;;;;;2616698;54;20932;-76
2022/09/02 21:08:06;;;;;;;5.70;5.40;;;18.90;1.80;;;;;;2616762;54;20892;-76
2022/09/02 21:33:16;;;;;;;6.63;5.60;;;18.70;2.20;;;;;;2616853;54;20379;-75
2022/09/02 21:55:10;;;;;;;7.10;6.40;;;18.50;3.10;;;;;;2617694;54;20511;-75
2022/09/02 22:13:58;;;;;;;6.20;5.70;;;18.30;3.10;;;;;;2616729;54;20386;-77
2022/09/02 22:19:56;;;;;;;6.23;5.63;;;18.30;3.30;;;;;;2616478;54;20395;-76
2022/09/02 22:25:43;;;;;;;6.40;5.90;;;18.00;3.90;;;;;;2615011;54;20545;-74
2022/09/02 22:31:34;;;;;;;5.93;5.53;;;18.00;4.10;;;;;;2614315;54;20172;-75
2022/09/02 22:34:38;;;;;;;5.70;5.30;;;17.90;4.50;;;;;;2615007;47;20482;-77
2022/09/02 22:37:08;;;;;;;6.73;6.10;;;18.00;4.40;;;;;;2613331;47;20551;-75
2022/09/02 22:43:02;;;;;;;6.63;5.50;;;17.80;5.50;;;;;;2615666;54;20972;-75
2022/09/02 22:55:05;;;;;;;5.70;5.27;;;17.70;5.40;;;;;;2615232;54;20429;-76
2022/09/02 22:58:04;;;;;;;6.37;5.83;;;17.50;5.80;;;;;;2614525;47;20425;-76
2022/09/02 23:16:52;;;;;;;9.70;6.67;;;16.90;7.90;;;;;;2615188;31;20875;-76
2022/09/02 23:22:59;;;;;;;6.50;5.90;;;16.70;9.20;;;;;;2615273;39;20476;-75
2022/09/02 23:42:24;;;;;;;11.13;5.77;;;17.10;7.50;;;;;;2616259;54;20397;-81
2022/09/02 23:48:36;;;;;;;8.63;6.10;;;16.90;7.60;;;;;;2617588;54;20441;-80
2022/09/02 23:58:04;;;;;;;5.60;5.20;;;16.80;8.60;;;;;;2620398;54;20393;-83
